Alverton, Pennsylvania
Current Conditions -  °F | °C
As of 7:53 AM on Thursday 18 Dec 2014 (Local Time) from KAGC Reporting Station
Overcast Overcast  
Wind Chill: 19°   Ceiling: 1900
Heat Index: 27°   Visibility: 10mi
Dew Point: 17°   Wind: 8mph
Humidity: 66%   Direction: 280°W
Pressure: 30.16"   Gusts: NA
Location:  40.14°N, 79.59°W
Report Text: KAGC 181253Z 28007KT 10SM OVC019 M03/M08 A3016 RMK AO2 SLP232 T10281083
Loading
Personal Weather Stations






























Interactive Weather Map New forecast layout! Learn more

10-Day Weather Forecast

Advertisements
Track Severe Weather on mobile